sensor_id;sensor_type;location;lat;lon;timestamp;P1;durP1;ratioP1;P2;durP2;ratioP2
70049;SDS011;57391;51.306;22.680;2024-03-17T00:01:25;15.80;;;8.30;;
70049;SDS011;57391;51.306;22.680;2024-03-17T00:03:27;14.30;;;8.20;;
70049;SDS011;57391;51.306;22.680;2024-03-17T00:05:29;15.60;;;8.10;;
70049;SDS011;57391;51.306;22.680;2024-03-17T00:07:31;16.50;;;9.10;;
70049;SDS011;57391;51.306;22.680;2024-03-17T00:09:32;15.30;;;8.70;;
70049;SDS011;57391;51.306;22.680;2024-03-17T00:11:35;17.60;;;8.60;;
70049;SDS011;57391;51.306;22.680;2024-03-17T00:13:37;16.00;;;8.90;;
70049;SDS011;57391;51.306;22.680;2024-03-17T00:15:38;17.90;;;8.50;;
70049;SDS011;57391;51.306;22.680;2024-03-17T00:17:40;14.60;;;8.40;;
70049;SDS011;57391;51.306;22.680;2024-03-17T00:19:41;14.00;;;7.80;;
70049;SDS011;57391;51.306;22.680;2024-03-17T00:21:43;15.50;;;8.30;;
70049;SDS011;57391;51.306;22.680;2024-03-17T00:23:47;14.90;;;8.30;;
70049;SDS011;57391;51.306;22.680;2024-03-17T00:25:54;14.70;;;8.10;;
70049;SDS011;57391;51.306;22.680;2024-03-17T00:27:56;13.10;;;7.70;;
70049;SDS011;57391;51.306;22.680;2024-03-17T00:29:59;15.20;;;7.50;;
70049;SDS011;57391;51.306;22.680;2024-03-17T00:32:00;15.60;;;7.90;;
70049;SDS011;57391;51.306;22.680;2024-03-17T00:34:02;13.50;;;8.00;;
70049;SDS011;57391;51.306;22.680;2024-03-17T00:36:05;14.60;;;8.00;;
70049;SDS011;57391;51.306;22.680;2024-03-17T00:38:07;13.40;;;7.30;;
70049;SDS011;57391;51.306;22.680;2024-03-17T00:40:12;14.90;;;7.70;;
70049;SDS011;57391;51.306;22.680;2024-03-17T00:42:14;13.80;;;7.50;;
70049;SDS011;57391;51.306;22.680;2024-03-17T00:44:15;12.90;;;6.80;;
70049;SDS011;57391;51.306;22.680;2024-03-17T00:46:19;12.90;;;7.40;;
70049;SDS011;57391;51.306;22.680;2024-03-17T00:48:22;12.20;;;7.30;;
70049;SDS011;57391;51.306;22.680;2024-03-17T00:50:23;15.00;;;7.60;;
70049;SDS011;57391;51.306;22.680;2024-03-17T00:52:25;14.40;;;7.40;;
70049;SDS011;57391;51.306;22.680;2024-03-17T00:54:27;13.10;;;7.30;;
70049;SDS011;57391;51.306;22.680;2024-03-17T00:56:30;14.10;;;7.40;;
70049;SDS011;57391;51.306;22.680;2024-03-17T00:58:32;13.10;;;7.20;;
70049;SDS011;57391;51.306;22.680;2024-03-17T01:00:33;14.90;;;7.40;;
70049;SDS011;57391;51.306;22.680;2024-03-17T01:02:35;11.10;;;6.70;;
70049;SDS011;57391;51.306;22.680;2024-03-17T01:04:37;12.90;;;7.00;;
70049;SDS011;57391;51.306;22.680;2024-03-17T01:06:38;12.60;;;7.10;;
70049;SDS011;57391;51.306;22.680;2024-03-17T01:08:42;13.40;;;7.30;;
70049;SDS011;57391;51.306;22.680;2024-03-17T01:10:46;11.60;;;7.30;;
70049;SDS011;57391;51.306;22.680;2024-03-17T01:12:53;13.20;;;7.20;;
70049;SDS011;57391;51.306;22.680;2024-03-17T01:14:54;12.90;;;7.40;;
70049;SDS011;57391;51.306;22.680;2024-03-17T01:16:57;14.20;;;7.70;;
70049;SDS011;57391;51.306;22.680;2024-03-17T01:19:00;14.40;;;7.70;;
70049;SDS011;57391;51.306;22.680;2024-03-17T01:21:02;12.50;;;7.00;;
70049;SDS011;57391;51.306;22.680;2024-03-17T01:23:05;14.00;;;7.80;;
70049;SDS011;57391;51.306;22.680;2024-03-17T01:25:07;12.30;;;7.60;;
70049;SDS011;57391;51.306;22.680;2024-03-17T01:27:10;11.70;;;7.80;;
70049;SDS011;57391;51.306;22.680;2024-03-17T01:29:15;14.80;;;7.50;;
70049;SDS011;57391;51.306;22.680;2024-03-17T01:31:17;13.40;;;8.60;;
70049;SDS011;57391;51.306;22.680;2024-03-17T01:33:18;15.60;;;8.30;;
70049;SDS011;57391;51.306;22.680;2024-03-17T01:35:20;13.30;;;7.60;;
70049;SDS011;57391;51.306;22.680;2024-03-17T01:37:22;12.90;;;7.90;;
70049;SDS011;57391;51.306;22.680;2024-03-17T01:39:23;12.50;;;8.10;;
70049;SDS011;57391;51.306;22.680;2024-03-17T01:41:25;13.20;;;8.10;;
70049;SDS011;57391;51.306;22.680;2024-03-17T01:43:27;13.30;;;8.50;;
70049;SDS011;57391;51.306;22.680;2024-03-17T01:45:30;13.80;;;8.30;;
70049;SDS011;57391;51.306;22.680;2024-03-17T01:47:35;12.40;;;8.70;;
70049;SDS011;57391;51.306;22.680;2024-03-17T01:49:36;12.70;;;8.10;;
70049;SDS011;57391;51.306;22.680;2024-03-17T01:51:38;12.30;;;8.40;;
70049;SDS011;57391;51.306;22.680;2024-03-17T01:53:40;13.50;;;8.10;;
70049;SDS011;57391;51.306;22.680;2024-03-17T01:55:45;12.70;;;7.60;;
70049;SDS011;57391;51.306;22.680;2024-03-17T01:57:50;11.70;;;7.50;;
70049;SDS011;57391;51.306;22.680;2024-03-17T01:59:54;12.50;;;6.70;;
70049;SDS011;57391;51.306;22.680;2024-03-17T02:01:57;10.20;;;6.90;;
70049;SDS011;57391;51.306;22.680;2024-03-17T02:03:59;10.90;;;6.80;;
70049;SDS011;57391;51.306;22.680;2024-03-17T02:06:00;13.20;;;7.80;;
70049;SDS011;57391;51.306;22.680;2024-03-17T02:08:04;11.10;;;7.60;;
70049;SDS011;57391;51.306;22.680;2024-03-17T02:10:06;12.50;;;8.30;;
70049;SDS011;57391;51.306;22.680;2024-03-17T02:12:09;13.20;;;8.30;;
70049;SDS011;57391;51.306;22.680;2024-03-17T02:14:13;11.30;;;7.80;;
70049;SDS011;57391;51.306;22.680;2024-03-17T02:16:15;11.40;;;7.10;;
70049;SDS011;57391;51.306;22.680;2024-03-17T02:18:18;13.20;;;7.80;;
70049;SDS011;57391;51.306;22.680;2024-03-17T02:20:19;11.50;;;7.60;;
70049;SDS011;57391;51.306;22.680;2024-03-17T02:22:23;10.80;;;6.80;;
70049;SDS011;57391;51.306;22.680;2024-03-17T02:24:25;11.90;;;7.00;;
70049;SDS011;57391;51.306;22.680;2024-03-17T02:26:27;11.80;;;6.40;;
70049;SDS011;57391;51.306;22.680;2024-03-17T02:28:29;10.90;;;6.30;;
70049;SDS011;57391;51.306;22.680;2024-03-17T02:30:31;10.50;;;5.70;;
70049;SDS011;57391;51.306;22.680;2024-03-17T02:32:32;10.20;;;5.60;;
70049;SDS011;57391;51.306;22.680;2024-03-17T02:34:35;9.20;;;5.10;;
70049;SDS011;57391;51.306;22.680;2024-03-17T02:36:37;10.80;;;4.80;;
70049;SDS011;57391;51.306;22.680;2024-03-17T02:38:40;7.80;;;4.00;;
70049;SDS011;57391;51.306;22.680;2024-03-17T02:41:00;7.70;;;3.10;;
70049;SDS011;57391;51.306;22.680;2024-03-17T02:43:02;7.80;;;3.20;;
70049;SDS011;57391;51.306;22.680;2024-03-17T02:45:04;9.90;;;3.00;;
70049;SDS011;57391;51.306;22.680;2024-03-17T02:47:07;9.70;;;3.10;;
70049;SDS011;57391;51.306;22.680;2024-03-17T02:49:12;8.80;;;2.60;;
70049;SDS011;57391;51.306;22.680;2024-03-17T02:51:16;8.90;;;2.80;;
70049;SDS011;57391;51.306;22.680;2024-03-17T02:53:20;8.10;;;2.60;;
70049;SDS011;57391;51.306;22.680;2024-03-17T02:55:22;8.80;;;2.50;;
70049;SDS011;57391;51.306;22.680;2024-03-17T02:57:26;4.40;;;1.80;;
70049;SDS011;57391;51.306;22.680;2024-03-17T02:59:32;8.20;;;2.50;;
70049;SDS011;57391;51.306;22.680;2024-03-17T03:01:34;9.10;;;1.90;;
70049;SDS011;57391;51.306;22.680;2024-03-17T03:03:36;6.50;;;1.90;;
70049;SDS011;57391;51.306;22.680;2024-03-17T03:05:38;7.10;;;2.20;;
70049;SDS011;57391;51.306;22.680;2024-03-17T03:07:40;8.50;;;2.00;;
70049;SDS011;57391;51.306;22.680;2024-03-17T03:09:42;8.90;;;1.80;;
70049;SDS011;57391;51.306;22.680;2024-03-17T03:11:43;7.50;;;1.70;;
70049;SDS011;57391;51.306;22.680;2024-03-17T03:13:45;5.60;;;1.60;;
70049;SDS011;57391;51.306;22.680;2024-03-17T03:15:47;8.00;;;1.60;;
70049;SDS011;57391;51.306;22.680;2024-03-17T03:17:49;8.40;;;1.50;;
70049;SDS011;57391;51.306;22.680;2024-03-17T03:19:51;7.20;;;1.70;;
70049;SDS011;57391;51.306;22.680;2024-03-17T03:21:53;7.30;;;1.30;;
70049;SDS011;57391;51.306;22.680;2024-03-17T03:23:54;9.50;;;1.90;;
70049;SDS011;57391;51.306;22.680;2024-03-17T03:26:00;4.60;;;1.40;;
70049;SDS011;57391;51.306;22.680;2024-03-17T03:28:05;6.40;;;1.40;;
70049;SDS011;57391;51.306;22.680;2024-03-17T03:30:07;9.70;;;1.70;;
70049;SDS011;57391;51.306;22.680;2024-03-17T03:32:09;5.30;;;1.30;;
70049;SDS011;57391;51.306;22.680;2024-03-17T03:34:11;12.30;;;1.80;;
70049;SDS011;57391;51.306;22.680;2024-03-17T03:36:14;5.90;;;1.50;;
70049;SDS011;57391;51.306;22.680;2024-03-17T03:38:18;5.30;;;1.40;;
70049;SDS011;57391;51.306;22.680;2024-03-17T03:40:21;11.10;;;2.20;;
70049;SDS011;57391;51.306;22.680;2024-03-17T03:42:22;6.10;;;1.70;;
70049;SDS011;57391;51.306;22.680;2024-03-17T03:44:24;7.90;;;1.50;;
70049;SDS011;57391;51.306;22.680;2024-03-17T03:46:26;7.70;;;1.90;;
70049;SDS011;57391;51.306;22.680;2024-03-17T03:48:27;7.60;;;2.00;;
70049;SDS011;57391;51.306;22.680;2024-03-17T03:50:30;6.50;;;1.40;;
70049;SDS011;57391;51.306;22.680;2024-03-17T03:52:32;7.00;;;1.70;;
70049;SDS011;57391;51.306;22.680;2024-03-17T03:54:34;7.60;;;1.30;;
70049;SDS011;57391;51.306;22.680;2024-03-17T03:56:37;10.60;;;1.80;;
70049;SDS011;57391;51.306;22.680;2024-03-17T03:58:39;7.90;;;1.60;;
70049;SDS011;57391;51.306;22.680;2024-03-17T04:00:41;8.80;;;1.90;;
70049;SDS011;57391;51.306;22.680;2024-03-17T04:02:43;6.80;;;1.30;;
70049;SDS011;57391;51.306;22.680;2024-03-17T04:04:45;7.80;;;1.40;;
70049;SDS011;57391;51.306;22.680;2024-03-17T04:06:46;7.70;;;1.80;;
70049;SDS011;57391;51.306;22.680;2024-03-17T04:08:48;7.40;;;1.60;;
70049;SDS011;57391;51.306;22.680;2024-03-17T04:10:50;7.20;;;1.50;;
70049;SDS011;57391;51.306;22.680;2024-03-17T04:12:53;9.20;;;1.40;;
70049;SDS011;57391;51.306;22.680;2024-03-17T04:14:54;8.10;;;1.80;;
70049;SDS011;57391;51.306;22.680;2024-03-17T04:16:56;8.20;;;1.80;;
70049;SDS011;57391;51.306;22.680;2024-03-17T04:18:59;11.80;;;1.70;;
70049;SDS011;57391;51.306;22.680;2024-03-17T04:21:02;8.40;;;1.70;;
70049;SDS011;57391;51.306;22.680;2024-03-17T04:23:05;7.60;;;1.80;;
70049;SDS011;57391;51.306;22.680;2024-03-17T04:25:07;11.20;;;1.80;;
70049;SDS011;57391;51.306;22.680;2024-03-17T04:27:10;11.10;;;1.90;;
70049;SDS011;57391;51.306;22.680;2024-03-17T04:29:12;8.20;;;1.40;;
70049;SDS011;57391;51.306;22.680;2024-03-17T04:31:14;8.10;;;1.70;;
70049;SDS011;57391;51.306;22.680;2024-03-17T04:33:16;5.50;;;1.20;;
70049;SDS011;57391;51.306;22.680;2024-03-17T04:35:18;11.50;;;1.70;;
70049;SDS011;57391;51.306;22.680;2024-03-17T04:37:19;7.60;;;1.60;;
70049;SDS011;57391;51.306;22.680;2024-03-17T04:39:21;10.60;;;1.50;;
70049;SDS011;57391;51.306;22.680;2024-03-17T04:41:23;7.80;;;1.50;;
70049;SDS011;57391;51.306;22.680;2024-03-17T04:43:25;9.60;;;1.60;;
70049;SDS011;57391;51.306;22.680;2024-03-17T04:45:27;9.10;;;1.60;;
70049;SDS011;57391;51.306;22.680;2024-03-17T04:47:28;12.60;;;1.60;;
70049;SDS011;57391;51.306;22.680;2024-03-17T04:49:30;7.60;;;2.10;;
70049;SDS011;57391;51.306;22.680;2024-03-17T04:51:32;10.40;;;1.90;;
70049;SDS011;57391;51.306;22.680;2024-03-17T04:53:36;7.60;;;1.70;;
70049;SDS011;57391;51.306;22.680;2024-03-17T04:55:38;9.20;;;2.10;;
70049;SDS011;57391;51.306;22.680;2024-03-17T04:57:39;6.10;;;1.90;;
70049;SDS011;57391;51.306;22.680;2024-03-17T04:59:41;7.80;;;2.10;;
70049;SDS011;57391;51.306;22.680;2024-03-17T05:01:42;8.60;;;1.50;;
70049;SDS011;57391;51.306;22.680;2024-03-17T05:03:44;7.60;;;1.90;;
70049;SDS011;57391;51.306;22.680;2024-03-17T05:05:46;6.90;;;1.60;;
70049;SDS011;57391;51.306;22.680;2024-03-17T05:07:47;10.40;;;1.80;;
70049;SDS011;57391;51.306;22.680;2024-03-17T05:09:49;10.10;;;2.10;;
70049;SDS011;57391;51.306;22.680;2024-03-17T05:11:51;8.60;;;1.70;;
70049;SDS011;57391;51.306;22.680;2024-03-17T05:13:55;5.70;;;1.90;;
70049;SDS011;57391;51.306;22.680;2024-03-17T05:15:59;12.70;;;2.00;;
70049;SDS011;57391;51.306;22.680;2024-03-17T05:18:01;10.00;;;1.80;;
70049;SDS011;57391;51.306;22.680;2024-03-17T05:20:03;11.10;;;1.80;;
70049;SDS011;57391;51.306;22.680;2024-03-17T05:22:06;9.20;;;2.00;;
70049;SDS011;57391;51.306;22.680;2024-03-17T05:24:08;9.40;;;2.40;;
70049;SDS011;57391;51.306;22.680;2024-03-17T05:26:10;6.20;;;1.50;;
70049;SDS011;57391;51.306;22.680;2024-03-17T05:28:11;13.50;;;2.10;;
70049;SDS011;57391;51.306;22.680;2024-03-17T05:30:13;6.30;;;1.70;;
70049;SDS011;57391;51.306;22.680;2024-03-17T05:32:15;6.40;;;1.60;;
70049;SDS011;57391;51.306;22.680;2024-03-17T05:34:16;8.80;;;1.70;;
70049;SDS011;57391;51.306;22.680;2024-03-17T05:36:18;7.10;;;1.50;;
70049;SDS011;57391;51.306;22.680;2024-03-17T05:38:22;11.90;;;1.80;;
70049;SDS011;57391;51.306;22.680;2024-03-17T05:40:25;8.00;;;2.00;;
70049;SDS011;57391;51.306;22.680;2024-03-17T05:42:27;7.90;;;1.90;;
70049;SDS011;57391;51.306;22.680;2024-03-17T05:44:29;9.50;;;2.10;;
70049;SDS011;57391;51.306;22.680;2024-03-17T05:46:34;11.90;;;2.30;;
70049;SDS011;57391;51.306;22.680;2024-03-17T05:48:38;10.70;;;2.20;;
70049;SDS011;57391;51.306;22.680;2024-03-17T05:50:41;8.80;;;1.90;;
70049;SDS011;57391;51.306;22.680;2024-03-17T05:52:42;11.10;;;2.50;;
70049;SDS011;57391;51.306;22.680;2024-03-17T05:54:44;9.00;;;2.40;;
70049;SDS011;57391;51.306;22.680;2024-03-17T05:56:46;10.90;;;3.10;;
70049;SDS011;57391;51.306;22.680;2024-03-17T05:58:47;9.10;;;2.50;;
70049;SDS011;57391;51.306;22.680;2024-03-17T06:00:49;8.10;;;2.60;;
70049;SDS011;57391;51.306;22.680;2024-03-17T06:02:51;8.20;;;2.10;;
70049;SDS011;57391;51.306;22.680;2024-03-17T06:04:52;12.30;;;2.60;;
70049;SDS011;57391;51.306;22.680;2024-03-17T06:06:54;12.10;;;2.50;;
70049;SDS011;57391;51.306;22.680;2024-03-17T06:08:55;8.20;;;2.30;;
70049;SDS011;57391;51.306;22.680;2024-03-17T06:10:57;13.00;;;2.50;;
70049;SDS011;57391;51.306;22.680;2024-03-17T06:13:02;10.00;;;1.90;;
70049;SDS011;57391;51.306;22.680;2024-03-17T06:15:04;12.60;;;1.90;;
70049;SDS011;57391;51.306;22.680;2024-03-17T06:17:07;10.20;;;2.10;;
70049;SDS011;57391;51.306;22.680;2024-03-17T06:19:09;8.50;;;1.90;;
70049;SDS011;57391;51.306;22.680;2024-03-17T06:21:11;10.50;;;2.20;;
70049;SDS011;57391;51.306;22.680;2024-03-17T06:23:15;11.90;;;2.50;;
70049;SDS011;57391;51.306;22.680;2024-03-17T06:25:17;12.40;;;2.30;;
70049;SDS011;57391;51.306;22.680;2024-03-17T06:27:19;10.40;;;1.90;;
70049;SDS011;57391;51.306;22.680;2024-03-17T06:29:20;8.10;;;1.80;;
70049;SDS011;57391;51.306;22.680;2024-03-17T06:31:22;8.30;;;2.10;;
70049;SDS011;57391;51.306;22.680;2024-03-17T06:33:23;10.60;;;2.00;;
70049;SDS011;57391;51.306;22.680;2024-03-17T06:35:25;12.30;;;2.20;;
70049;SDS011;57391;51.306;22.680;2024-03-17T06:37:28;12.40;;;2.30;;
70049;SDS011;57391;51.306;22.680;2024-03-17T06:39:29;9.60;;;2.10;;
70049;SDS011;57391;51.306;22.680;2024-03-17T06:41:31;7.80;;;2.50;;
70049;SDS011;57391;51.306;22.680;2024-03-17T06:43:32;9.00;;;2.20;;
70049;SDS011;57391;51.306;22.680;2024-03-17T06:45:34;8.80;;;2.30;;
70049;SDS011;57391;51.306;22.680;2024-03-17T06:47:37;10.80;;;2.40;;
70049;SDS011;57391;51.306;22.680;2024-03-17T06:49:38;10.70;;;2.10;;
70049;SDS011;57391;51.306;22.680;2024-03-17T06:51:40;10.80;;;2.30;;
70049;SDS011;57391;51.306;22.680;2024-03-17T06:53:42;8.60;;;2.00;;
70049;SDS011;57391;51.306;22.680;2024-03-17T06:55:43;11.10;;;2.10;;
70049;SDS011;57391;51.306;22.680;2024-03-17T06:57:47;10.90;;;2.40;;
70049;SDS011;57391;51.306;22.680;2024-03-17T06:59:49;7.80;;;2.20;;
70049;SDS011;57391;51.306;22.680;2024-03-17T07:01:50;9.70;;;2.10;;
70049;SDS011;57391;51.306;22.680;2024-03-17T07:03:52;7.70;;;2.10;;
70049;SDS011;57391;51.306;22.680;2024-03-17T07:05:55;5.40;;;1.70;;
70049;SDS011;57391;51.306;22.680;2024-03-17T07:07:58;10.90;;;2.00;;
70049;SDS011;57391;51.306;22.680;2024-03-17T07:10:00;10.90;;;2.00;;
70049;SDS011;57391;51.306;22.680;2024-03-17T07:12:10;11.10;;;3.30;;
70049;SDS011;57391;51.306;22.680;2024-03-17T07:14:15;9.50;;;2.50;;
70049;SDS011;57391;51.306;22.680;2024-03-17T07:16:16;9.60;;;1.60;;
70049;SDS011;57391;51.306;22.680;2024-03-17T07:18:19;12.60;;;2.50;;
70049;SDS011;57391;51.306;22.680;2024-03-17T07:20:21;10.30;;;2.80;;
70049;SDS011;57391;51.306;22.680;2024-03-17T07:22:23;9.80;;;2.60;;
70049;SDS011;57391;51.306;22.680;2024-03-17T07:24:27;10.30;;;2.50;;
70049;SDS011;57391;51.306;22.680;2024-03-17T07:26:29;13.10;;;3.10;;
70049;SDS011;57391;51.306;22.680;2024-03-17T07:28:31;12.80;;;3.00;;
70049;SDS011;57391;51.306;22.680;2024-03-17T07:30:33;10.90;;;3.00;;
70049;SDS011;57391;51.306;22.680;2024-03-17T07:32:35;9.10;;;2.30;;
70049;SDS011;57391;51.306;22.680;2024-03-17T07:34:37;9.30;;;2.80;;
70049;SDS011;57391;51.306;22.680;2024-03-17T07:36:38;9.80;;;2.90;;
70049;SDS011;57391;51.306;22.680;2024-03-17T07:38:40;9.70;;;3.30;;
70049;SDS011;57391;51.306;22.680;2024-03-17T07:40:44;9.80;;;2.80;;
70049;SDS011;57391;51.306;22.680;2024-03-17T07:42:46;8.20;;;2.30;;
70049;SDS011;57391;51.306;22.680;2024-03-17T07:44:48;8.50;;;2.50;;
70049;SDS011;57391;51.306;22.680;2024-03-17T07:46:50;9.60;;;2.40;;
70049;SDS011;57391;51.306;22.680;2024-03-17T07:48:51;8.10;;;2.40;;
70049;SDS011;57391;51.306;22.680;2024-03-17T07:50:54;7.10;;;2.00;;
70049;SDS011;57391;51.306;22.680;2024-03-17T07:52:57;8.40;;;2.60;;
70049;SDS011;57391;51.306;22.680;2024-03-17T07:54:59;11.10;;;2.60;;
70049;SDS011;57391;51.306;22.680;2024-03-17T07:57:00;8.20;;;2.40;;
70049;SDS011;57391;51.306;22.680;2024-03-17T07:59:02;9.90;;;2.70;;
70049;SDS011;57391;51.306;22.680;2024-03-17T08:01:13;9.60;;;2.60;;
70049;SDS011;57391;51.306;22.680;2024-03-17T08:03:16;10.90;;;3.00;;
70049;SDS011;57391;51.306;22.680;2024-03-17T08:05:17;9.00;;;2.60;;
70049;SDS011;57391;51.306;22.680;2024-03-17T08:07:19;11.00;;;3.40;;
70049;SDS011;57391;51.306;22.680;2024-03-17T08:09:21;10.20;;;2.80;;
70049;SDS011;57391;51.306;22.680;2024-03-17T08:11:23;8.70;;;2.70;;
70049;SDS011;57391;51.306;22.680;2024-03-17T08:13:26;11.30;;;2.60;;
70049;SDS011;57391;51.306;22.680;2024-03-17T08:15:30;9.90;;;3.40;;
70049;SDS011;57391;51.306;22.680;2024-03-17T08:17:31;8.20;;;2.80;;
70049;SDS011;57391;51.306;22.680;2024-03-17T08:19:33;7.90;;;2.60;;
70049;SDS011;57391;51.306;22.680;2024-03-17T08:21:35;8.80;;;3.00;;
70049;SDS011;57391;51.306;22.680;2024-03-17T08:23:36;7.80;;;2.90;;
70049;SDS011;57391;51.306;22.680;2024-03-17T08:25:51;10.30;;;2.90;;
70049;SDS011;57391;51.306;22.680;2024-03-17T08:27:55;9.30;;;3.00;;
70049;SDS011;57391;51.306;22.680;2024-03-17T08:29:56;10.30;;;3.00;;
70049;SDS011;57391;51.306;22.680;2024-03-17T08:31:58;9.90;;;2.40;;
70049;SDS011;57391;51.306;22.680;2024-03-17T08:34:00;6.80;;;2.40;;
70049;SDS011;57391;51.306;22.680;2024-03-17T08:36:06;6.10;;;2.20;;
70049;SDS011;57391;51.306;22.680;2024-03-17T08:38:08;7.60;;;2.50;;
70049;SDS011;57391;51.306;22.680;2024-03-17T08:40:10;9.60;;;3.30;;
70049;SDS011;57391;51.306;22.680;2024-03-17T08:42:13;9.70;;;2.90;;
70049;SDS011;57391;51.306;22.680;2024-03-17T08:44:14;10.00;;;2.60;;
70049;SDS011;57391;51.306;22.680;2024-03-17T08:46:16;9.20;;;2.80;;
70049;SDS011;57391;51.306;22.680;2024-03-17T08:48:18;7.80;;;2.90;;
70049;SDS011;57391;51.306;22.680;2024-03-17T08:50:19;9.30;;;3.10;;
70049;SDS011;57391;51.306;22.680;2024-03-17T08:52:21;9.00;;;2.90;;
70049;SDS011;57391;51.306;22.680;2024-03-17T08:54:23;8.80;;;3.20;;
70049;SDS011;57391;51.306;22.680;2024-03-17T08:56:24;11.40;;;3.30;;
70049;SDS011;57391;51.306;22.680;2024-03-17T08:58:26;10.90;;;3.40;;
70049;SDS011;57391;51.306;22.680;2024-03-17T09:00:28;7.50;;;2.70;;
70049;SDS011;57391;51.306;22.680;2024-03-17T09:02:31;9.30;;;3.20;;
70049;SDS011;57391;51.306;22.680;2024-03-17T09:04:33;11.20;;;3.00;;
70049;SDS011;57391;51.306;22.680;2024-03-17T09:06:35;7.90;;;3.30;;
70049;SDS011;57391;51.306;22.680;2024-03-17T09:08:37;9.30;;;3.30;;
70049;SDS011;57391;51.306;22.680;2024-03-17T09:10:42;11.70;;;3.20;;
70049;SDS011;57391;51.306;22.680;2024-03-17T09:12:45;9.70;;;3.40;;
70049;SDS011;57391;51.306;22.680;2024-03-17T09:14:48;9.20;;;3.00;;
70049;SDS011;57391;51.306;22.680;2024-03-17T09:16:50;8.70;;;2.70;;
70049;SDS011;57391;51.306;22.680;2024-03-17T09:18:52;10.30;;;3.10;;
70049;SDS011;57391;51.306;22.680;2024-03-17T09:21:01;7.90;;;3.20;;
70049;SDS011;57391;51.306;22.680;2024-03-17T09:23:04;8.70;;;2.90;;
70049;SDS011;57391;51.306;22.680;2024-03-17T09:25:08;7.20;;;2.90;;
70049;SDS011;57391;51.306;22.680;2024-03-17T09:27:10;8.50;;;3.20;;
70049;SDS011;57391;51.306;22.680;2024-03-17T09:29:12;9.40;;;3.40;;
70049;SDS011;57391;51.306;22.680;2024-03-17T09:31:18;7.70;;;2.80;;
70049;SDS011;57391;51.306;22.680;2024-03-17T09:33:22;9.30;;;3.00;;
70049;SDS011;57391;51.306;22.680;2024-03-17T09:35:24;9.70;;;3.00;;
70049;SDS011;57391;51.306;22.680;2024-03-17T09:37:26;11.20;;;3.20;;
70049;SDS011;57391;51.306;22.680;2024-03-17T09:39:52;11.30;;;3.40;;
70049;SDS011;57391;51.306;22.680;2024-03-17T09:41:58;6.40;;;2.60;;
70049;SDS011;57391;51.306;22.680;2024-03-17T09:44:05;7.70;;;3.00;;
70049;SDS011;57391;51.306;22.680;2024-03-17T09:46:11;9.10;;;3.00;;
70049;SDS011;57391;51.306;22.680;2024-03-17T09:48:17;6.10;;;2.40;;
70049;SDS011;57391;51.306;22.680;2024-03-17T09:50:19;7.40;;;2.70;;
70049;SDS011;57391;51.306;22.680;2024-03-17T09:52:21;9.00;;;2.10;;
70049;SDS011;57391;51.306;22.680;2024-03-17T09:54:24;5.80;;;1.90;;
70049;SDS011;57391;51.306;22.680;2024-03-17T09:56:25;6.90;;;2.10;;
70049;SDS011;57391;51.306;22.680;2024-03-17T09:58:27;5.20;;;2.10;;
70049;SDS011;57391;51.306;22.680;2024-03-17T10:00:29;4.30;;;1.50;;
70049;SDS011;57391;51.306;22.680;2024-03-17T10:02:30;5.80;;;1.60;;
70049;SDS011;57391;51.306;22.680;2024-03-17T10:04:32;5.10;;;1.80;;
70049;SDS011;57391;51.306;22.680;2024-03-17T10:06:44;5.50;;;1.60;;
70049;SDS011;57391;51.306;22.680;2024-03-17T10:08:51;6.60;;;1.70;;
70049;SDS011;57391;51.306;22.680;2024-03-17T10:10:54;5.40;;;2.10;;
70049;SDS011;57391;51.306;22.680;2024-03-17T10:12:56;6.30;;;1.80;;
70049;SDS011;57391;51.306;22.680;2024-03-17T10:15:01;5.90;;;1.70;;
70049;SDS011;57391;51.306;22.680;2024-03-17T10:17:03;5.60;;;1.60;;
70049;SDS011;57391;51.306;22.680;2024-03-17T10:19:13;7.10;;;1.70;;
70049;SDS011;57391;51.306;22.680;2024-03-17T10:21:27;7.30;;;1.60;;
70049;SDS011;57391;51.306;22.680;2024-03-17T10:23:29;8.10;;;2.10;;
70049;SDS011;57391;51.306;22.680;2024-03-17T10:25:39;4.90;;;1.80;;
70049;SDS011;57391;51.306;22.680;2024-03-17T10:27:43;6.30;;;1.70;;
70049;SDS011;57391;51.306;22.680;2024-03-17T10:29:51;5.80;;;2.00;;
70049;SDS011;57391;51.306;22.680;2024-03-17T10:31:54;5.20;;;1.70;;
70049;SDS011;57391;51.306;22.680;2024-03-17T10:34:02;4.70;;;1.90;;
70049;SDS011;57391;51.306;22.680;2024-03-17T10:36:04;5.40;;;1.80;;
70049;SDS011;57391;51.306;22.680;2024-03-17T10:38:09;9.40;;;2.40;;
70049;SDS011;57391;51.306;22.680;2024-03-17T10:40:13;8.90;;;2.20;;
70049;SDS011;57391;51.306;22.680;2024-03-17T10:42:23;7.00;;;1.90;;
70049;SDS011;57391;51.306;22.680;2024-03-17T10:44:28;7.20;;;2.50;;
70049;SDS011;57391;51.306;22.680;2024-03-17T10:46:30;7.20;;;2.10;;
70049;SDS011;57391;51.306;22.680;2024-03-17T10:48:33;8.40;;;2.60;;
70049;SDS011;57391;51.306;22.680;2024-03-17T10:50:38;7.60;;;2.40;;
70049;SDS011;57391;51.306;22.680;2024-03-17T10:52:50;4.80;;;2.00;;
70049;SDS011;57391;51.306;22.680;2024-03-17T10:54:53;7.70;;;2.30;;
70049;SDS011;57391;51.306;22.680;2024-03-17T10:56:57;8.20;;;2.20;;
70049;SDS011;57391;51.306;22.680;2024-03-17T10:59:22;6.30;;;2.50;;
70049;SDS011;57391;51.306;22.680;2024-03-17T11:01:30;8.00;;;2.60;;
70049;SDS011;57391;51.306;22.680;2024-03-17T11:03:34;6.90;;;2.50;;
70049;SDS011;57391;51.306;22.680;2024-03-17T11:05:37;8.10;;;2.50;;
70049;SDS011;57391;51.306;22.680;2024-03-17T11:07:39;6.70;;;2.50;;
70049;SDS011;57391;51.306;22.680;2024-03-17T11:09:48;8.70;;;2.50;;
70049;SDS011;57391;51.306;22.680;2024-03-17T11:11:52;10.80;;;2.70;;
70049;SDS011;57391;51.306;22.680;2024-03-17T11:14:17;8.40;;;2.30;;
70049;SDS011;57391;51.306;22.680;2024-03-17T11:16:27;10.40;;;2.20;;
70049;SDS011;57391;51.306;22.680;2024-03-17T11:18:31;8.40;;;2.10;;
70049;SDS011;57391;51.306;22.680;2024-03-17T11:20:40;7.60;;;2.20;;
70049;SDS011;57391;51.306;22.680;2024-03-17T11:22:44;7.30;;;2.50;;
70049;SDS011;57391;51.306;22.680;2024-03-17T11:24:46;7.70;;;2.30;;
70049;SDS011;57391;51.306;22.680;2024-03-17T11:26:48;7.30;;;2.40;;
70049;SDS011;57391;51.306;22.680;2024-03-17T11:28:51;6.10;;;2.00;;
70049;SDS011;57391;51.306;22.680;2024-03-17T11:30:53;6.70;;;2.40;;
70049;SDS011;57391;51.306;22.680;2024-03-17T11:35:31;8.40;;;2.50;;
70049;SDS011;57391;51.306;22.680;2024-03-17T11:37:43;7.80;;;2.10;;
70049;SDS011;57391;51.306;22.680;2024-03-17T11:39:49;6.20;;;2.00;;
70049;SDS011;57391;51.306;22.680;2024-03-17T11:42:04;7.10;;;2.30;;
70049;SDS011;57391;51.306;22.680;2024-03-17T11:46:23;5.50;;;2.10;;
70049;SDS011;57391;51.306;22.680;2024-03-17T11:48:25;7.00;;;2.30;;
70049;SDS011;57391;51.306;22.680;2024-03-17T11:50:29;8.60;;;2.10;;
70049;SDS011;57391;51.306;22.680;2024-03-17T11:52:30;6.90;;;2.40;;
70049;SDS011;57391;51.306;22.680;2024-03-17T11:54:34;7.60;;;2.70;;
70049;SDS011;57391;51.306;22.680;2024-03-17T11:56:38;6.80;;;2.20;;
70049;SDS011;57391;51.306;22.680;2024-03-17T11:58:39;6.60;;;2.20;;
70049;SDS011;57391;51.306;22.680;2024-03-17T12:00:42;8.50;;;2.40;;
70049;SDS011;57391;51.306;22.680;2024-03-17T12:02:48;9.50;;;2.40;;
70049;SDS011;57391;51.306;22.680;2024-03-17T12:04:52;7.60;;;2.40;;
70049;SDS011;57391;51.306;22.680;2024-03-17T12:06:56;9.00;;;2.50;;
70049;SDS011;57391;51.306;22.680;2024-03-17T12:11:33;8.90;;;2.70;;
70049;SDS011;57391;51.306;22.680;2024-03-17T12:13:35;6.30;;;2.20;;